sensor_id;sensor_type;location;lat;lon;timestamp;temperature;humidity
9951;DHT22;24074;49.254;6.702;2022-12-05T00:02:14;2.40;99.90
9951;DHT22;24074;49.254;6.702;2022-12-05T00:04:39;2.40;99.90
9951;DHT22;24074;49.254;6.702;2022-12-05T00:07:05;2.40;99.90
9951;DHT22;24074;49.254;6.702;2022-12-05T00:09:30;2.40;99.90
9951;DHT22;24074;49.254;6.702;2022-12-05T00:11:56;2.40;99.90
9951;DHT22;24074;49.254;6.702;2022-12-05T00:14:21;2.50;99.90
9951;DHT22;24074;49.254;6.702;2022-12-05T00:16:47;2.50;99.90
9951;DHT22;24074;49.254;6.702;2022-12-05T00:19:14;2.40;99.90
9951;DHT22;24074;49.254;6.702;2022-12-05T00:21:40;2.40;99.90
9951;DHT22;24074;49.254;6.702;2022-12-05T00:24:09;2.40;99.90
9951;DHT22;24074;49.254;6.702;2022-12-05T00:26:36;2.40;99.90
9951;DHT22;24074;49.254;6.702;2022-12-05T00:29:02;2.40;99.90
9951;DHT22;24074;49.254;6.702;2022-12-05T00:31:28;2.40;99.90
9951;DHT22;24074;49.254;6.702;2022-12-05T00:33:54;2.30;99.90
9951;DHT22;24074;49.254;6.702;2022-12-05T00:36:21;2.40;99.90
9951;DHT22;24074;49.254;6.702;2022-12-05T00:38:47;2.40;99.90
9951;DHT22;24074;49.254;6.702;2022-12-05T00:41:15;2.50;99.90
9951;DHT22;24074;49.254;6.702;2022-12-05T00:43:41;2.50;99.90
9951;DHT22;24074;49.254;6.702;2022-12-05T00:46:10;2.40;99.90
9951;DHT22;24074;49.254;6.702;2022-12-05T00:48:36;2.40;99.90
9951;DHT22;24074;49.254;6.702;2022-12-05T00:51:02;2.30;99.90
9951;DHT22;24074;49.254;6.702;2022-12-05T00:53:28;2.30;99.90
9951;DHT22;24074;49.254;6.702;2022-12-05T00:55:53;2.20;99.90
9951;DHT22;24074;49.254;6.702;2022-12-05T00:58:19;2.20;99.90
9951;DHT22;24074;49.254;6.702;2022-12-05T01:00:45;2.30;99.90
9951;DHT22;24074;49.254;6.702;2022-12-05T01:03:10;2.30;99.90
9951;DHT22;24074;49.254;6.702;2022-12-05T01:05:36;2.40;99.90
9951;DHT22;24074;49.254;6.702;2022-12-05T01:08:01;2.50;99.90
9951;DHT22;24074;49.254;6.702;2022-12-05T01:10:27;2.60;99.90
9951;DHT22;24074;49.254;6.702;2022-12-05T01:12:53;2.60;99.90
9951;DHT22;24074;49.254;6.702;2022-12-05T01:15:18;2.60;99.90
9951;DHT22;24074;49.254;6.702;2022-12-05T01:17:44;2.50;99.90
9951;DHT22;24074;49.254;6.702;2022-12-05T01:20:10;2.40;99.90
9951;DHT22;24074;49.254;6.702;2022-12-05T01:22:35;2.40;99.90
9951;DHT22;24074;49.254;6.702;2022-12-05T01:25:01;2.40;99.90
9951;DHT22;24074;49.254;6.702;2022-12-05T01:27:27;2.30;99.90
9951;DHT22;24074;49.254;6.702;2022-12-05T01:29:53;2.30;99.90
9951;DHT22;24074;49.254;6.702;2022-12-05T01:32:18;2.20;99.90
9951;DHT22;24074;49.254;6.702;2022-12-05T01:34:44;2.20;99.90
9951;DHT22;24074;49.254;6.702;2022-12-05T01:37:09;2.30;99.90
9951;DHT22;24074;49.254;6.702;2022-12-05T01:39:35;2.40;99.90
9951;DHT22;24074;49.254;6.702;2022-12-05T01:42:00;2.60;99.90
9951;DHT22;24074;49.254;6.702;2022-12-05T01:46:55;2.50;99.90
9951;DHT22;24074;49.254;6.702;2022-12-05T01:49:32;2.50;99.90
9951;DHT22;24074;49.254;6.702;2022-12-05T01:52:05;2.50;99.90
9951;DHT22;24074;49.254;6.702;2022-12-05T01:54:35;2.40;99.90
9951;DHT22;24074;49.254;6.702;2022-12-05T01:57:04;2.30;99.90
9951;DHT22;24074;49.254;6.702;2022-12-05T01:59:34;2.40;99.90
9951;DHT22;24074;49.254;6.702;2022-12-05T02:02:01;2.30;99.90
9951;DHT22;24074;49.254;6.702;2022-12-05T02:04:27;2.20;99.90
9951;DHT22;24074;49.254;6.702;2022-12-05T02:06:53;2.20;99.90
9951;DHT22;24074;49.254;6.702;2022-12-05T02:09:22;2.20;99.90
9951;DHT22;24074;49.254;6.702;2022-12-05T02:11:56;2.30;99.90
9951;DHT22;24074;49.254;6.702;2022-12-05T02:14:47;2.40;99.90
9951;DHT22;24074;49.254;6.702;2022-12-05T02:22:56;2.40;99.90
9951;DHT22;24074;49.254;6.702;2022-12-05T02:31:10;2.50;99.90
9951;DHT22;24074;49.254;6.702;2022-12-05T02:36:58;2.30;99.90
9951;DHT22;24074;49.254;6.702;2022-12-05T02:39:30;2.30;99.90
9951;DHT22;24074;49.254;6.702;2022-12-05T02:42:11;2.40;99.90
9951;DHT22;24074;49.254;6.702;2022-12-05T02:45:00;2.40;99.90
9951;DHT22;24074;49.254;6.702;2022-12-05T02:47:30;2.40;99.90
9951;DHT22;24074;49.254;6.702;2022-12-05T02:49:58;2.10;99.90
9951;DHT22;24074;49.254;6.702;2022-12-05T02:52:24;2.10;99.90
9951;DHT22;24074;49.254;6.702;2022-12-05T02:54:52;2.20;99.90
9951;DHT22;24074;49.254;6.702;2022-12-05T02:57:19;2.30;99.90
9951;DHT22;24074;49.254;6.702;2022-12-05T02:59:45;2.40;99.90
9951;DHT22;24074;49.254;6.702;2022-12-05T03:02:47;2.40;99.90
9951;DHT22;24074;49.254;6.702;2022-12-05T03:05:31;2.50;99.90
9951;DHT22;24074;49.254;6.702;2022-12-05T03:08:01;2.60;99.90
9951;DHT22;24074;49.254;6.702;2022-12-05T03:10:30;2.60;99.90
9951;DHT22;24074;49.254;6.702;2022-12-05T03:13:04;2.50;99.90
9951;DHT22;24074;49.254;6.702;2022-12-05T03:15:35;2.50;99.90
9951;DHT22;24074;49.254;6.702;2022-12-05T03:18:12;2.50;99.90
9951;DHT22;24074;49.254;6.702;2022-12-05T03:20:59;2.50;99.90
9951;DHT22;24074;49.254;6.702;2022-12-05T03:23:30;2.60;99.90
9951;DHT22;24074;49.254;6.702;2022-12-05T03:31:50;2.60;99.90
9951;DHT22;24074;49.254;6.702;2022-12-05T03:34:22;2.50;99.90
9951;DHT22;24074;49.254;6.702;2022-12-05T03:36:53;2.50;99.90
9951;DHT22;24074;49.254;6.702;2022-12-05T03:39:26;2.40;99.90
9951;DHT22;24074;49.254;6.702;2022-12-05T03:44:51;2.40;99.90
9951;DHT22;24074;49.254;6.702;2022-12-05T03:47:39;2.40;99.90
9951;DHT22;24074;49.254;6.702;2022-12-05T03:50:19;2.30;99.90
9951;DHT22;24074;49.254;6.702;2022-12-05T03:52:52;2.30;99.90
9951;DHT22;24074;49.254;6.702;2022-12-05T03:55:22;2.30;99.90
9951;DHT22;24074;49.254;6.702;2022-12-05T03:57:56;2.30;99.90
9951;DHT22;24074;49.254;6.702;2022-12-05T04:00:23;2.30;99.90
9951;DHT22;24074;49.254;6.702;2022-12-05T04:03:05;2.30;99.90
9951;DHT22;24074;49.254;6.702;2022-12-05T04:05:56;2.30;99.90
9951;DHT22;24074;49.254;6.702;2022-12-05T04:08:37;2.30;99.90
9951;DHT22;24074;49.254;6.702;2022-12-05T04:11:13;2.50;99.90
9951;DHT22;24074;49.254;6.702;2022-12-05T04:13:47;2.50;99.90
9951;DHT22;24074;49.254;6.702;2022-12-05T04:19:27;2.60;99.90
9951;DHT22;24074;49.254;6.702;2022-12-05T04:22:14;2.80;99.90
9951;DHT22;24074;49.254;6.702;2022-12-05T04:24:40;2.80;99.90
9951;DHT22;24074;49.254;6.702;2022-12-05T04:30:03;2.60;99.90
9951;DHT22;24074;49.254;6.702;2022-12-05T04:35:27;2.60;99.90
9951;DHT22;24074;49.254;6.702;2022-12-05T04:38:27;2.60;99.90
9951;DHT22;24074;49.254;6.702;2022-12-05T04:41:02;2.60;99.90
9951;DHT22;24074;49.254;6.702;2022-12-05T04:43:31;2.60;99.90
9951;DHT22;24074;49.254;6.702;2022-12-05T04:45:59;2.50;99.90
9951;DHT22;24074;49.254;6.702;2022-12-05T04:48:27;2.50;99.90
9951;DHT22;24074;49.254;6.702;2022-12-05T04:50:54;2.50;99.90
9951;DHT22;24074;49.254;6.702;2022-12-05T04:53:23;2.50;99.90
9951;DHT22;24074;49.254;6.702;2022-12-05T04:55:53;2.50;99.90
9951;DHT22;24074;49.254;6.702;2022-12-05T04:58:22;2.60;99.90
9951;DHT22;24074;49.254;6.702;2022-12-05T05:03:42;2.60;99.90
9951;DHT22;24074;49.254;6.702;2022-12-05T05:06:22;2.60;99.90
9951;DHT22;24074;49.254;6.702;2022-12-05T05:08:53;2.60;99.90
9951;DHT22;24074;49.254;6.702;2022-12-05T05:11:27;2.70;99.90
9951;DHT22;24074;49.254;6.702;2022-12-05T05:14:02;2.70;99.90
9951;DHT22;24074;49.254;6.702;2022-12-05T05:16:30;2.70;99.90
9951;DHT22;24074;49.254;6.702;2022-12-05T05:18:56;2.70;99.90
9951;DHT22;24074;49.254;6.702;2022-12-05T05:21:29;2.60;99.90
9951;DHT22;24074;49.254;6.702;2022-12-05T05:23:56;2.60;99.90
9951;DHT22;24074;49.254;6.702;2022-12-05T05:26:23;2.60;99.90
9951;DHT22;24074;49.254;6.702;2022-12-05T05:28:49;2.60;99.90
9951;DHT22;24074;49.254;6.702;2022-12-05T05:31:16;2.60;99.90
9951;DHT22;24074;49.254;6.702;2022-12-05T05:33:42;2.60;99.90
9951;DHT22;24074;49.254;6.702;2022-12-05T05:36:12;2.70;99.90
9951;DHT22;24074;49.254;6.702;2022-12-05T05:38:46;2.80;99.90
9951;DHT22;24074;49.254;6.702;2022-12-05T05:41:18;2.80;99.90
9951;DHT22;24074;49.254;6.702;2022-12-05T05:43:44;2.70;99.90
9951;DHT22;24074;49.254;6.702;2022-12-05T05:46:11;2.70;99.90
9951;DHT22;24074;49.254;6.702;2022-12-05T05:48:37;2.70;99.90
9951;DHT22;24074;49.254;6.702;2022-12-05T05:51:04;2.80;99.90
9951;DHT22;24074;49.254;6.702;2022-12-05T05:53:30;2.80;99.90
9951;DHT22;24074;49.254;6.702;2022-12-05T05:56:10;2.80;99.90
9951;DHT22;24074;49.254;6.702;2022-12-05T05:58:36;2.90;99.90
9951;DHT22;24074;49.254;6.702;2022-12-05T06:03:28;2.80;99.90
9951;DHT22;24074;49.254;6.702;2022-12-05T06:06:01;2.80;99.90
9951;DHT22;24074;49.254;6.702;2022-12-05T06:08:29;2.80;99.90
9951;DHT22;24074;49.254;6.702;2022-12-05T06:10:55;3.00;99.90
9951;DHT22;24074;49.254;6.702;2022-12-05T06:13:20;2.80;99.90
9951;DHT22;24074;49.254;6.702;2022-12-05T06:15:49;2.70;99.90
9951;DHT22;24074;49.254;6.702;2022-12-05T06:18:14;2.70;99.90
9951;DHT22;24074;49.254;6.702;2022-12-05T06:20:40;2.80;99.90
9951;DHT22;24074;49.254;6.702;2022-12-05T06:23:06;2.80;99.90
9951;DHT22;24074;49.254;6.702;2022-12-05T06:25:32;2.80;99.90
9951;DHT22;24074;49.254;6.702;2022-12-05T06:27:57;2.80;99.90
9951;DHT22;24074;49.254;6.702;2022-12-05T06:30:23;2.80;99.90
9951;DHT22;24074;49.254;6.702;2022-12-05T06:32:49;2.90;99.90
9951;DHT22;24074;49.254;6.702;2022-12-05T06:35:14;3.00;99.90
9951;DHT22;24074;49.254;6.702;2022-12-05T06:37:42;2.90;99.90
9951;DHT22;24074;49.254;6.702;2022-12-05T06:40:08;3.00;99.90
9951;DHT22;24074;49.254;6.702;2022-12-05T06:42:34;3.10;99.90
9951;DHT22;24074;49.254;6.702;2022-12-05T06:45:03;3.10;99.90
9951;DHT22;24074;49.254;6.702;2022-12-05T06:47:29;3.10;99.90
9951;DHT22;24074;49.254;6.702;2022-12-05T06:49:55;3.00;99.90
9951;DHT22;24074;49.254;6.702;2022-12-05T06:52:20;3.00;99.90
9951;DHT22;24074;49.254;6.702;2022-12-05T06:54:46;3.10;99.90
9951;DHT22;24074;49.254;6.702;2022-12-05T06:57:12;3.10;99.90
9951;DHT22;24074;49.254;6.702;2022-12-05T06:59:38;3.30;99.90
9951;DHT22;24074;49.254;6.702;2022-12-05T07:02:03;3.20;99.90
9951;DHT22;24074;49.254;6.702;2022-12-05T07:04:32;3.20;99.90
9951;DHT22;24074;49.254;6.702;2022-12-05T07:06:58;3.20;99.90
9951;DHT22;24074;49.254;6.702;2022-12-05T07:09:26;3.20;99.90
9951;DHT22;24074;49.254;6.702;2022-12-05T07:12:19;3.20;99.90
9951;DHT22;24074;49.254;6.702;2022-12-05T07:14:45;3.20;99.90
9951;DHT22;24074;49.254;6.702;2022-12-05T07:17:11;3.20;99.90
9951;DHT22;24074;49.254;6.702;2022-12-05T07:19:37;3.10;99.90
9951;DHT22;24074;49.254;6.702;2022-12-05T07:22:03;3.10;99.90
9951;DHT22;24074;49.254;6.702;2022-12-05T07:24:28;3.10;99.90
9951;DHT22;24074;49.254;6.702;2022-12-05T07:26:54;3.10;99.90
9951;DHT22;24074;49.254;6.702;2022-12-05T07:29:25;3.10;99.90
9951;DHT22;24074;49.254;6.702;2022-12-05T07:31:57;3.10;99.90
9951;DHT22;24074;49.254;6.702;2022-12-05T07:34:22;3.10;99.90
9951;DHT22;24074;49.254;6.702;2022-12-05T07:36:51;3.20;99.90
9951;DHT22;24074;49.254;6.702;2022-12-05T07:39:17;3.20;99.90
9951;DHT22;24074;49.254;6.702;2022-12-05T07:41:42;3.30;99.90
9951;DHT22;24074;49.254;6.702;2022-12-05T07:44:10;3.30;99.90
9951;DHT22;24074;49.254;6.702;2022-12-05T07:46:36;3.30;99.90
9951;DHT22;24074;49.254;6.702;2022-12-05T07:49:02;3.30;99.90
9951;DHT22;24074;49.254;6.702;2022-12-05T07:51:28;3.40;99.90
9951;DHT22;24074;49.254;6.702;2022-12-05T07:53:54;3.40;99.90
9951;DHT22;24074;49.254;6.702;2022-12-05T07:56:20;3.40;99.90
9951;DHT22;24074;49.254;6.702;2022-12-05T07:58:48;3.40;99.90
9951;DHT22;24074;49.254;6.702;2022-12-05T08:01:16;3.60;99.90
9951;DHT22;24074;49.254;6.702;2022-12-05T08:03:42;3.70;99.90
9951;DHT22;24074;49.254;6.702;2022-12-05T08:06:11;3.80;99.90
9951;DHT22;24074;49.254;6.702;2022-12-05T08:08:38;3.80;99.90
9951;DHT22;24074;49.254;6.702;2022-12-05T08:13:30;3.90;99.90
9951;DHT22;24074;49.254;6.702;2022-12-05T08:16:00;4.00;99.90
9951;DHT22;24074;49.254;6.702;2022-12-05T08:18:26;4.10;99.90
9951;DHT22;24074;49.254;6.702;2022-12-05T08:20:51;4.20;99.90
9951;DHT22;24074;49.254;6.702;2022-12-05T08:23:17;4.30;99.90
9951;DHT22;24074;49.254;6.702;2022-12-05T08:25:42;4.20;99.90
9951;DHT22;24074;49.254;6.702;2022-12-05T08:28:08;4.30;99.90
9951;DHT22;24074;49.254;6.702;2022-12-05T08:30:34;4.40;99.90
9951;DHT22;24074;49.254;6.702;2022-12-05T08:33:03;4.40;99.90
9951;DHT22;24074;49.254;6.702;2022-12-05T08:35:30;4.40;99.90
9951;DHT22;24074;49.254;6.702;2022-12-05T08:37:59;4.50;99.90
9951;DHT22;24074;49.254;6.702;2022-12-05T08:40:24;4.60;99.90
9951;DHT22;24074;49.254;6.702;2022-12-05T08:42:50;4.60;99.90
9951;DHT22;24074;49.254;6.702;2022-12-05T08:45:15;4.60;99.90
9951;DHT22;24074;49.254;6.702;2022-12-05T08:47:41;4.60;99.90
9951;DHT22;24074;49.254;6.702;2022-12-05T08:50:07;4.60;99.90
9951;DHT22;24074;49.254;6.702;2022-12-05T08:52:33;4.70;99.90
9951;DHT22;24074;49.254;6.702;2022-12-05T08:54:58;4.60;99.90
9951;DHT22;24074;49.254;6.702;2022-12-05T08:57:24;4.60;99.90
9951;DHT22;24074;49.254;6.702;2022-12-05T08:59:49;4.60;99.90
9951;DHT22;24074;49.254;6.702;2022-12-05T09:02:15;4.60;99.90
9951;DHT22;24074;49.254;6.702;2022-12-05T09:04:40;4.60;99.90
9951;DHT22;24074;49.254;6.702;2022-12-05T09:07:06;4.60;99.90
9951;DHT22;24074;49.254;6.702;2022-12-05T09:09:33;4.60;99.90
9951;DHT22;24074;49.254;6.702;2022-12-05T09:11:59;4.70;99.90
9951;DHT22;24074;49.254;6.702;2022-12-05T09:14:25;4.60;99.90
9951;DHT22;24074;49.254;6.702;2022-12-05T09:16:57;4.70;99.90
9951;DHT22;24074;49.254;6.702;2022-12-05T09:19:22;4.70;99.90
9951;DHT22;24074;49.254;6.702;2022-12-05T09:21:50;4.80;99.90
9951;DHT22;24074;49.254;6.702;2022-12-05T09:24:16;4.80;99.90
9951;DHT22;24074;49.254;6.702;2022-12-05T09:26:42;4.90;99.90
9951;DHT22;24074;49.254;6.702;2022-12-05T09:29:14;4.90;99.90
9951;DHT22;24074;49.254;6.702;2022-12-05T09:31:46;4.80;99.90
9951;DHT22;24074;49.254;6.702;2022-12-05T09:34:12;4.80;99.90
9951;DHT22;24074;49.254;6.702;2022-12-05T09:36:39;4.90;99.90
9951;DHT22;24074;49.254;6.702;2022-12-05T09:39:09;4.90;99.90
9951;DHT22;24074;49.254;6.702;2022-12-05T09:42:08;4.90;99.90
9951;DHT22;24074;49.254;6.702;2022-12-05T09:50:12;4.90;99.90
9951;DHT22;24074;49.254;6.702;2022-12-05T09:55:18;4.80;99.90
9951;DHT22;24074;49.254;6.702;2022-12-05T09:58:04;5.00;99.90
9951;DHT22;24074;49.254;6.702;2022-12-05T10:00:34;5.00;99.90
9951;DHT22;24074;49.254;6.702;2022-12-05T10:06:17;5.00;99.90
9951;DHT22;24074;49.254;6.702;2022-12-05T10:09:18;4.90;99.90
9951;DHT22;24074;49.254;6.702;2022-12-05T10:12:03;5.00;99.90
9951;DHT22;24074;49.254;6.702;2022-12-05T10:18:01;5.00;99.90
9951;DHT22;24074;49.254;6.702;2022-12-05T10:20:40;5.10;99.90
9951;DHT22;24074;49.254;6.702;2022-12-05T10:23:13;5.10;99.90
9951;DHT22;24074;49.254;6.702;2022-12-05T10:25:41;5.00;99.90
9951;DHT22;24074;49.254;6.702;2022-12-05T10:28:16;5.00;99.90
9951;DHT22;24074;49.254;6.702;2022-12-05T10:30:45;5.00;99.90
9951;DHT22;24074;49.254;6.702;2022-12-05T10:33:19;5.10;99.90
9951;DHT22;24074;49.254;6.702;2022-12-05T10:35:45;5.10;99.90
9951;DHT22;24074;49.254;6.702;2022-12-05T10:38:24;5.10;99.90
9951;DHT22;24074;49.254;6.702;2022-12-05T10:40:54;5.10;99.90
9951;DHT22;24074;49.254;6.702;2022-12-05T10:43:27;5.10;99.90
9951;DHT22;24074;49.254;6.702;2022-12-05T10:45:53;5.20;99.90
9951;DHT22;24074;49.254;6.702;2022-12-05T10:48:20;5.20;99.90
9951;DHT22;24074;49.254;6.702;2022-12-05T10:50:52;5.10;99.90
9951;DHT22;24074;49.254;6.702;2022-12-05T10:53:26;5.20;99.90
9951;DHT22;24074;49.254;6.702;2022-12-05T10:55:52;5.30;99.90
9951;DHT22;24074;49.254;6.702;2022-12-05T10:58:20;5.30;99.90
9951;DHT22;24074;49.254;6.702;2022-12-05T11:00:51;5.30;99.90
9951;DHT22;24074;49.254;6.702;2022-12-05T11:03:31;5.40;99.90
9951;DHT22;24074;49.254;6.702;2022-12-05T11:05:59;5.30;99.90
9951;DHT22;24074;49.254;6.702;2022-12-05T11:08:30;5.30;99.90
9951;DHT22;24074;49.254;6.702;2022-12-05T11:11:05;5.40;99.90
9951;DHT22;24074;49.254;6.702;2022-12-05T11:13:34;5.30;99.90
9951;DHT22;24074;49.254;6.702;2022-12-05T11:16:03;5.30;99.90
9951;DHT22;24074;49.254;6.702;2022-12-05T11:18:32;5.30;99.90
9951;DHT22;24074;49.254;6.702;2022-12-05T11:21:11;5.40;99.90
9951;DHT22;24074;49.254;6.702;2022-12-05T11:23:37;5.40;99.90
9951;DHT22;24074;49.254;6.702;2022-12-05T11:26:34;5.50;99.90
9951;DHT22;24074;49.254;6.702;2022-12-05T11:29:02;5.40;99.90
9951;DHT22;24074;49.254;6.702;2022-12-05T11:31:29;5.30;99.90
9951;DHT22;24074;49.254;6.702;2022-12-05T11:33:59;5.30;99.90
9951;DHT22;24074;49.254;6.702;2022-12-05T11:36:36;5.30;99.90
9951;DHT22;24074;49.254;6.702;2022-12-05T11:39:03;5.30;99.90
9951;DHT22;24074;49.254;6.702;2022-12-05T11:44:38;5.30;99.90
9951;DHT22;24074;49.254;6.702;2022-12-05T11:55:41;5.40;99.90
9951;DHT22;24074;49.254;6.702;2022-12-05T11:58:40;5.30;99.90
9951;DHT22;24074;49.254;6.702;2022-12-05T12:26:15;5.40;99.90
9951;DHT22;24074;49.254;6.702;2022-12-05T12:28:56;5.50;99.90
9951;DHT22;24074;49.254;6.702;2022-12-05T12:31:38;5.50;99.90
9951;DHT22;24074;49.254;6.702;2022-12-05T12:39:49;5.50;99.90
9951;DHT22;24074;49.254;6.702;2022-12-05T12:42:24;5.50;99.90
9951;DHT22;24074;49.254;6.702;2022-12-05T12:50:23;5.60;99.90
9951;DHT22;24074;49.254;6.702;2022-12-05T13:12:04;5.50;99.90
9951;DHT22;24074;49.254;6.702;2022-12-05T13:14:33;5.50;99.90
9951;DHT22;24074;49.254;6.702;2022-12-05T13:17:00;5.50;99.90
9951;DHT22;24074;49.254;6.702;2022-12-05T13:19:39;5.40;99.90
9951;DHT22;24074;49.254;6.702;2022-12-05T13:22:07;5.40;99.90
9951;DHT22;24074;49.254;6.702;2022-12-05T13:24:34;5.40;99.90
9951;DHT22;24074;49.254;6.702;2022-12-05T13:27:16;5.40;99.90
9951;DHT22;24074;49.254;6.702;2022-12-05T13:29:59;5.30;99.90
9951;DHT22;24074;49.254;6.702;2022-12-05T13:32:29;5.30;99.90
9951;DHT22;24074;49.254;6.702;2022-12-05T13:35:11;5.30;99.90
9951;DHT22;24074;49.254;6.702;2022-12-05T13:37:47;5.30;99.90
9951;DHT22;24074;49.254;6.702;2022-12-05T13:40:33;5.30;99.90
9951;DHT22;24074;49.254;6.702;2022-12-05T13:43:21;5.30;99.90
9951;DHT22;24074;49.254;6.702;2022-12-05T13:46:08;5.30;99.90
9951;DHT22;24074;49.254;6.702;2022-12-05T13:48:38;5.30;99.90
9951;DHT22;24074;49.254;6.702;2022-12-05T13:51:12;5.30;99.90
9951;DHT22;24074;49.254;6.702;2022-12-05T13:53:47;5.30;99.90
9951;DHT22;24074;49.254;6.702;2022-12-05T14:09:00;5.30;99.90
9951;DHT22;24074;49.254;6.702;2022-12-05T14:11:26;5.20;99.90
9951;DHT22;24074;49.254;6.702;2022-12-05T14:13:52;5.30;99.90
9951;DHT22;24074;49.254;6.702;2022-12-05T14:22:13;5.20;99.90
9951;DHT22;24074;49.254;6.702;2022-12-05T14:25:05;5.20;99.90
9951;DHT22;24074;49.254;6.702;2022-12-05T14:27:56;5.30;99.90
9951;DHT22;24074;49.254;6.702;2022-12-05T14:30:51;5.30;99.90
9951;DHT22;24074;49.254;6.702;2022-12-05T14:33:22;5.30;99.90
9951;DHT22;24074;49.254;6.702;2022-12-05T14:35:49;5.20;99.90
9951;DHT22;24074;49.254;6.702;2022-12-05T14:38:30;5.30;99.90
9951;DHT22;24074;49.254;6.702;2022-12-05T14:41:13;5.20;99.90
9951;DHT22;24074;49.254;6.702;2022-12-05T14:43:40;5.30;99.90
9951;DHT22;24074;49.254;6.702;2022-12-05T14:46:14;5.20;99.90
9951;DHT22;24074;49.254;6.702;2022-12-05T14:48:42;5.20;99.90
9951;DHT22;24074;49.254;6.702;2022-12-05T14:54:06;5.20;99.90
9951;DHT22;24074;49.254;6.702;2022-12-05T14:56:51;5.20;99.90
9951;DHT22;24074;49.254;6.702;2022-12-05T14:59:25;5.10;99.90
9951;DHT22;24074;49.254;6.702;2022-12-05T15:02:01;5.20;99.90
9951;DHT22;24074;49.254;6.702;2022-12-05T15:07:08;5.20;99.90
9951;DHT22;24074;49.254;6.702;2022-12-05T15:14:53;5.20;99.90
9951;DHT22;24074;49.254;6.702;2022-12-05T15:17:26;5.20;99.90
9951;DHT22;24074;49.254;6.702;2022-12-05T15:19:58;5.30;99.90
9951;DHT22;24074;49.254;6.702;2022-12-05T15:22:28;5.30;99.90
9951;DHT22;24074;49.254;6.702;2022-12-05T15:24:56;5.20;99.90
9951;DHT22;24074;49.254;6.702;2022-12-05T15:27:22;5.20;99.90
9951;DHT22;24074;49.254;6.702;2022-12-05T15:29:47;5.20;99.90
9951;DHT22;24074;49.254;6.702;2022-12-05T15:32:21;5.20;99.90
9951;DHT22;24074;49.254;6.702;2022-12-05T15:35:05;5.20;99.90
9951;DHT22;24074;49.254;6.702;2022-12-05T15:37:46;5.20;99.90
9951;DHT22;24074;49.254;6.702;2022-12-05T15:40:13;5.30;99.90
9951;DHT22;24074;49.254;6.702;2022-12-05T15:47:38;5.30;99.90
9951;DHT22;24074;49.254;6.702;2022-12-05T15:50:05;5.20;99.90
9951;DHT22;24074;49.254;6.702;2022-12-05T15:52:42;5.30;99.90
9951;DHT22;24074;49.254;6.702;2022-12-05T15:55:21;5.20;99.90
9951;DHT22;24074;49.254;6.702;2022-12-05T15:57:53;5.20;99.90
9951;DHT22;24074;49.254;6.702;2022-12-05T16:00:21;5.20;99.90
9951;DHT22;24074;49.254;6.702;2022-12-05T16:03:03;5.20;99.90
9951;DHT22;24074;49.254;6.702;2022-12-05T16:05:39;5.20;99.90
9951;DHT22;24074;49.254;6.702;2022-12-05T16:08:06;5.20;99.90
9951;DHT22;24074;49.254;6.702;2022-12-05T16:10:33;5.20;99.90
9951;DHT22;24074;49.254;6.702;2022-12-05T16:13:16;5.10;99.90
9951;DHT22;24074;49.254;6.702;2022-12-05T16:15:49;5.10;99.90
9951;DHT22;24074;49.254;6.702;2022-12-05T16:18:34;5.20;99.90
9951;DHT22;24074;49.254;6.702;2022-12-05T16:21:02;5.10;99.90
9951;DHT22;24074;49.254;6.702;2022-12-05T16:23:29;5.20;99.90
9951;DHT22;24074;49.254;6.702;2022-12-05T16:28:37;5.10;99.90
9951;DHT22;24074;49.254;6.702;2022-12-05T16:31:03;5.20;99.90
9951;DHT22;24074;49.254;6.702;2022-12-05T16:33:30;5.20;99.90
9951;DHT22;24074;49.254;6.702;2022-12-05T16:36:07;5.20;99.90
9951;DHT22;24074;49.254;6.702;2022-12-05T16:38:32;5.20;99.90
9951;DHT22;24074;49.254;6.702;2022-12-05T16:48:39;5.20;99.90
9951;DHT22;24074;49.254;6.702;2022-12-05T16:53:43;5.10;99.90
9951;DHT22;24074;49.254;6.702;2022-12-05T16:56:24;5.00;99.90
9951;DHT22;24074;49.254;6.702;2022-12-05T16:58:50;5.00;99.90
9951;DHT22;24074;49.254;6.702;2022-12-05T17:01:18;5.00;99.90
9951;DHT22;24074;49.254;6.702;2022-12-05T17:03:44;5.00;99.90
9951;DHT22;24074;49.254;6.702;2022-12-05T17:06:14;5.00;99.90
9951;DHT22;24074;49.254;6.702;2022-12-05T17:08:41;5.10;99.90
9951;DHT22;24074;49.254;6.702;2022-12-05T17:11:16;5.10;99.90
9951;DHT22;24074;49.254;6.702;2022-12-05T17:13:42;5.10;99.90
9951;DHT22;24074;49.254;6.702;2022-12-05T17:16:09;5.00;99.90
9951;DHT22;24074;49.254;6.702;2022-12-05T17:18:35;5.00;99.90
9951;DHT22;24074;49.254;6.702;2022-12-05T17:21:01;4.90;99.90
9951;DHT22;24074;49.254;6.702;2022-12-05T17:23:27;4.90;99.90
9951;DHT22;24074;49.254;6.702;2022-12-05T17:25:54;4.90;99.90
9951;DHT22;24074;49.254;6.702;2022-12-05T17:28:22;4.80;99.90
9951;DHT22;24074;49.254;6.702;2022-12-05T17:30:48;4.80;99.90
9951;DHT22;24074;49.254;6.702;2022-12-05T17:33:18;4.70;99.90
9951;DHT22;24074;49.254;6.702;2022-12-05T17:35:44;4.80;99.90
9951;DHT22;24074;49.254;6.702;2022-12-05T17:38:10;4.80;99.90
9951;DHT22;24074;49.254;6.702;2022-12-05T17:40:39;4.70;99.90
9951;DHT22;24074;49.254;6.702;2022-12-05T17:43:04;4.60;99.90
9951;DHT22;24074;49.254;6.702;2022-12-05T17:45:30;4.60;99.90
9951;DHT22;24074;49.254;6.702;2022-12-05T17:47:59;4.50;99.90
9951;DHT22;24074;49.254;6.702;2022-12-05T17:50:25;4.50;99.90
9951;DHT22;24074;49.254;6.702;2022-12-05T17:52:54;4.50;99.90
9951;DHT22;24074;49.254;6.702;2022-12-05T17:55:23;4.50;99.90
9951;DHT22;24074;49.254;6.702;2022-12-05T17:57:49;4.50;99.90
9951;DHT22;24074;49.254;6.702;2022-12-05T18:00:16;4.40;99.90
9951;DHT22;24074;49.254;6.702;2022-12-05T18:02:43;4.40;99.90
9951;DHT22;24074;49.254;6.702;2022-12-05T18:05:11;4.30;99.90
9951;DHT22;24074;49.254;6.702;2022-12-05T18:07:40;4.40;99.90
9951;DHT22;24074;49.254;6.702;2022-12-05T18:10:08;4.40;99.90
9951;DHT22;24074;49.254;6.702;2022-12-05T18:12:35;4.40;99.90
9951;DHT22;24074;49.254;6.702;2022-12-05T18:15:00;4.50;99.90
9951;DHT22;24074;49.254;6.702;2022-12-05T18:17:26;4.40;99.90
9951;DHT22;24074;49.254;6.702;2022-12-05T18:19:53;4.40;99.90
9951;DHT22;24074;49.254;6.702;2022-12-05T18:22:24;4.40;99.90
9951;DHT22;24074;49.254;6.702;2022-12-05T18:24:51;4.40;99.90
9951;DHT22;24074;49.254;6.702;2022-12-05T18:27:17;4.40;99.90
9951;DHT22;24074;49.254;6.702;2022-12-05T18:29:43;4.50;99.90
9951;DHT22;24074;49.254;6.702;2022-12-05T18:32:08;4.50;99.90
9951;DHT22;24074;49.254;6.702;2022-12-05T18:34:34;4.40;99.90
9951;DHT22;24074;49.254;6.702;2022-12-05T18:37:00;4.40;99.90
9951;DHT22;24074;49.254;6.702;2022-12-05T18:39:26;4.50;99.90
9951;DHT22;24074;49.254;6.702;2022-12-05T18:41:52;4.50;99.90
9951;DHT22;24074;49.254;6.702;2022-12-05T18:44:18;4.50;99.90
9951;DHT22;24074;49.254;6.702;2022-12-05T18:46:44;4.50;99.90
9951;DHT22;24074;49.254;6.702;2022-12-05T18:49:11;4.50;99.90
9951;DHT22;24074;49.254;6.702;2022-12-05T18:51:37;4.50;99.90
9951;DHT22;24074;49.254;6.702;2022-12-05T18:54:03;4.50;99.90
9951;DHT22;24074;49.254;6.702;2022-12-05T18:56:31;4.50;99.90
9951;DHT22;24074;49.254;6.702;2022-12-05T18:59:00;4.50;99.90
9951;DHT22;24074;49.254;6.702;2022-12-05T19:01:27;4.50;99.90
9951;DHT22;24074;49.254;6.702;2022-12-05T19:03:57;4.60;99.90
9951;DHT22;24074;49.254;6.702;2022-12-05T19:06:26;4.60;99.90
9951;DHT22;24074;49.254;6.702;2022-12-05T19:09:02;4.50;99.90
9951;DHT22;24074;49.254;6.702;2022-12-05T19:11:29;4.40;99.90
9951;DHT22;24074;49.254;6.702;2022-12-05T19:13:56;4.50;99.90